Time;durP1;ratioP1;P1;durP2;ratioP2;P2;SDS_P1;SDS_P2;PMS_P1;PMS_P2;Temp;Humidity;BMP_temperature;BMP_pressure;BME280_temperature;BME280_humidity;BME280_pressure;Samples;Min_cycle;Max_cycle;Signal;HPM_P1;HPM_P2
2022/05/07 00:02:09;;;;;;;15.83;11.10;;;15.30;99.90;;;;;;5094472;28;20232;-84
2022/05/07 00:04:37;;;;;;;16.77;11.23;;;15.30;99.90;;;;;;5093618;28;20213;-85
2022/05/07 00:07:04;;;;;;;11.70;10.43;;;15.30;99.90;;;;;;5078192;28;20213;-84
2022/05/07 00:09:31;;;;;;;13.47;10.20;;;15.30;99.90;;;;;;5075699;28;20206;-85
2022/05/07 00:12:00;;;;;;;11.50;9.57;;;15.30;99.90;;;;;;5071729;28;20202;-85
2022/05/07 00:14:27;;;;;;;10.90;9.40;;;15.40;99.90;;;;;;5071614;28;20227;-83
2022/05/07 00:19:38;;;;;;;13.00;11.60;;;15.40;99.90;;;;;;5072872;28;20498;-83
2022/05/07 00:22:05;;;;;;;12.83;9.83;;;15.50;99.90;;;;;;5072969;28;20249;-85
2022/05/07 00:24:32;;;;;;;11.43;8.23;;;15.60;99.90;;;;;;5073346;28;20209;-85
2022/05/07 00:27:00;;;;;;;10.70;8.20;;;15.50;99.90;;;;;;5073140;28;20251;-82
2022/05/07 00:29:27;;;;;;;11.73;9.50;;;15.40;99.90;;;;;;5074408;28;20206;-84
2022/05/07 00:31:55;;;;;;;12.47;9.37;;;15.60;99.90;;;;;;5079505;28;20207;-85
2022/05/07 00:34:23;;;;;;;9.50;8.60;;;15.60;99.90;;;;;;5076039;28;20215;-84
2022/05/07 00:36:50;;;;;;;11.27;10.00;;;15.50;99.90;;;;;;5075247;28;20244;-82
2022/05/07 00:39:17;;;;;;;11.13;8.47;;;15.50;99.90;;;;;;5075553;28;20206;-82
2022/05/07 00:41:43;;;;;;;7.30;6.60;;;15.40;99.90;;;;;;5075021;28;20225;-83
2022/05/07 00:44:11;;;;;;;9.23;6.70;;;15.40;99.90;;;;;;5075350;28;20202;-83
2022/05/07 00:46:38;;;;;;;9.00;5.67;;;15.50;99.90;;;;;;5075168;28;20215;-82
2022/05/07 00:49:05;;;;;;;6.87;6.07;;;15.50;99.90;;;;;;5074623;28;20207;-82
2022/05/07 00:51:34;;;;;;;6.17;4.83;;;15.40;99.90;;;;;;5073991;28;20213;-83
2022/05/07 00:54:03;;;;;;;6.37;4.30;;;15.30;99.90;;;;;;5073275;28;20263;-83
2022/05/07 00:56:30;;;;;;;8.30;4.53;;;15.20;99.90;;;;;;5079845;28;20204;-82
2022/05/07 00:58:58;;;;;;;7.13;4.57;;;15.20;99.90;;;;;;5091869;28;20259;-82
2022/05/07 01:01:26;;;;;;;5.73;4.67;;;15.20;99.90;;;;;;5091326;28;20231;-84
2022/05/07 01:03:54;;;;;;;5.73;4.50;;;15.10;99.90;;;;;;5093296;28;20258;-82
2022/05/07 01:06:21;;;;;;;8.37;4.50;;;14.90;99.90;;;;;;5093043;28;20209;-83
2022/05/07 01:08:49;;;;;;;5.13;4.43;;;14.80;99.90;;;;;;5093079;28;20273;-85
2022/05/07 01:11:16;;;;;;;4.83;4.37;;;14.90;99.90;;;;;;5093100;28;20220;-83
2022/05/07 01:13:45;;;;;;;8.93;4.50;;;14.70;99.90;;;;;;5093427;28;20201;-83
2022/05/07 01:16:13;;;;;;;5.23;4.07;;;14.60;99.90;;;;;;5093147;28;20285;-83
2022/05/07 01:18:42;;;;;;;7.77;4.30;;;14.60;99.90;;;;;;5092417;28;20205;-83
2022/05/07 01:21:12;;;;;;;6.50;4.10;;;14.60;99.90;;;;;;5093132;28;20571;-83
2022/05/07 01:23:40;;;;;;;6.03;4.33;;;14.50;99.90;;;;;;5093100;28;20608;-85
2022/05/07 01:26:07;;;;;;;4.13;3.73;;;14.40;99.90;;;;;;5092796;28;20213;-84
2022/05/07 01:28:34;;;;;;;4.97;4.17;;;14.30;99.90;;;;;;5096369;28;20197;-85
2022/05/07 01:31:01;;;;;;;7.67;4.40;;;14.20;99.90;;;;;;5097337;28;20209;-84
2022/05/07 01:33:28;;;;;;;5.63;4.47;;;14.20;99.90;;;;;;5096698;28;20201;-84
2022/05/07 01:35:55;;;;;;;5.77;4.40;;;14.10;99.90;;;;;;5096966;28;20218;-85
2022/05/07 01:38:23;;;;;;;7.13;4.57;;;14.00;99.90;;;;;;5096878;28;20208;-84
2022/05/07 01:40:49;;;;;;;5.40;4.47;;;14.00;99.90;;;;;;5097123;28;20198;-83
2022/05/07 01:43:16;;;;;;;7.70;4.37;;;14.10;99.90;;;;;;5096374;28;20204;-83
2022/05/07 01:45:43;;;;;;;6.57;4.70;;;14.10;99.90;;;;;;5096888;28;20283;-83
2022/05/07 01:48:12;;;;;;;8.47;4.80;;;14.20;99.90;;;;;;5096506;28;20201;-83
2022/05/07 01:50:39;;;;;;;8.40;4.90;;;14.10;99.90;;;;;;5097109;28;20193;-84
2022/05/07 01:53:08;;;;;;;6.00;4.80;;;13.90;99.90;;;;;;5096062;28;20557;-84
2022/05/07 01:55:36;;;;;;;10.67;5.20;;;13.90;99.90;;;;;;5096424;28;20332;-83
2022/05/07 01:58:04;;;;;;;6.60;5.00;;;13.90;99.90;;;;;;5096777;28;20205;-84
2022/05/07 02:00:31;;;;;;;5.67;5.10;;;13.80;99.90;;;;;;5096509;28;20232;-83
2022/05/07 02:02:58;;;;;;;7.57;5.33;;;13.90;99.90;;;;;;5095717;28;20204;-83
2022/05/07 02:05:26;;;;;;;10.23;5.70;;;13.80;99.90;;;;;;5096705;28;20211;-83
2022/05/07 02:07:53;;;;;;;6.33;5.30;;;13.90;99.90;;;;;;5096140;28;20244;-83
2022/05/07 02:10:20;;;;;;;9.47;5.83;;;13.90;99.90;;;;;;5096249;28;20197;-83
2022/05/07 02:12:49;;;;;;;6.20;5.47;;;14.00;99.90;;;;;;5096264;28;20212;-85
2022/05/07 02:15:18;;;;;;;7.93;5.60;;;14.10;99.90;;;;;;5096288;28;20233;-83
2022/05/07 02:17:45;;;;;;;6.90;5.90;;;14.20;99.90;;;;;;5096203;28;20208;-83
2022/05/07 02:20:13;;;;;;;8.47;6.03;;;14.10;99.90;;;;;;5096152;28;20610;-84
2022/05/07 02:22:39;;;;;;;11.10;6.00;;;14.00;99.90;;;;;;5096109;28;20658;-83
2022/05/07 02:25:08;;;;;;;7.20;5.57;;;13.90;99.90;;;;;;5096433;28;20237;-83
2022/05/07 02:27:35;;;;;;;7.10;5.73;;;13.80;99.90;;;;;;5096229;28;20283;-85
2022/05/07 02:30:08;;;;;;;8.47;5.63;;;13.70;99.90;;;;;;5095948;28;20304;-83
2022/05/07 02:32:35;;;;;;;7.17;5.97;;;13.60;99.90;;;;;;5095621;28;20205;-85
2022/05/07 02:35:03;;;;;;;7.40;6.30;;;13.60;99.90;;;;;;5095988;28;20216;-83
2022/05/07 02:37:30;;;;;;;8.17;5.80;;;13.50;99.90;;;;;;5095803;28;20674;-84
2022/05/07 02:39:57;;;;;;;7.45;5.28;;;13.50;99.90;;;;;;5095007;28;20407;-84
2022/05/07 02:42:36;;;;;;;14.20;6.47;;;13.50;99.90;;;;;;5095481;28;20208;-84
2022/05/07 02:45:09;;;;;;;7.63;5.90;;;13.40;99.90;;;;;;5096056;28;20286;-85
2022/05/07 02:47:40;;;;;;;7.20;6.40;;;13.40;99.90;;;;;;5095395;28;20212;-84
2022/05/07 02:50:09;;;;;;;8.53;6.60;;;13.40;99.90;;;;;;5095818;28;20203;-84
2022/05/07 02:52:36;;;;;;;8.93;6.93;;;13.30;99.90;;;;;;5095629;28;20204;-84
2022/05/07 02:55:05;;;;;;;6.90;6.20;;;13.40;99.90;;;;;;5093862;28;20289;-83
2022/05/07 02:57:32;;;;;;;12.10;6.80;;;13.40;99.90;;;;;;5095632;28;20548;-84
2022/05/07 02:59:59;;;;;;;10.67;6.00;;;13.50;99.90;;;;;;5094805;28;20220;-84
2022/05/07 03:02:27;;;;;;;8.17;6.70;;;13.50;99.90;;;;;;5094300;28;20265;-84
2022/05/07 03:04:54;;;;;;;10.32;7.85;;;13.40;99.90;;;;;;5094568;28;20430;-84
2022/05/07 03:07:21;;;;;;;10.70;7.10;;;13.30;99.90;;;;;;5095447;28;20211;-84
2022/05/07 03:09:48;;;;;;;10.80;7.50;;;13.20;99.90;;;;;;5095067;28;20202;-85
2022/05/07 03:12:15;;;;;;;10.40;8.40;;;13.10;99.90;;;;;;5095321;28;20203;-85
2022/05/07 03:14:41;;;;;;;14.57;9.03;;;13.00;99.90;;;;;;5095116;28;20225;-85
2022/05/07 03:17:08;;;;;;;13.90;9.50;;;12.90;99.90;;;;;;5095294;28;20234;-86
2022/05/07 03:19:42;;;;;;;9.70;8.70;;;12.90;99.90;;;;;;5094895;28;20575;-84
2022/05/07 03:22:10;;;;;;;14.97;10.77;;;12.90;99.90;;;;;;5093839;28;20206;-86
2022/05/07 03:24:38;;;;;;;12.20;10.03;;;12.90;99.90;;;;;;5095025;28;20198;-85
2022/05/07 03:27:05;;;;;;;19.60;11.10;;;12.80;99.90;;;;;;5093956;28;20206;-84
2022/05/07 03:29:32;;;;;;;12.80;10.63;;;12.80;99.90;;;;;;5094384;28;20208;-85
2022/05/07 03:31:59;;;;;;;11.87;9.97;;;12.90;99.90;;;;;;5094572;28;20223;-84
2022/05/07 03:34:26;;;;;;;17.00;10.63;;;12.90;99.90;;;;;;5095262;28;20188;-84
2022/05/07 03:36:54;;;;;;;17.43;10.93;;;12.90;99.90;;;;;;5094873;28;20225;-84
2022/05/07 03:39:21;;;;;;;17.30;10.73;;;13.00;99.90;;;;;;5094641;28;20197;-84
2022/05/07 03:41:47;;;;;;;17.70;11.50;;;13.10;99.90;;;;;;5094342;28;20204;-84
2022/05/07 03:44:14;;;;;;;13.87;11.50;;;13.10;99.90;;;;;;5094560;28;20199;-84
2022/05/07 03:46:41;;;;;;;17.07;11.43;;;13.00;99.90;;;;;;5094231;28;20220;-84
2022/05/07 03:49:08;;;;;;;18.73;11.97;;;13.00;99.90;;;;;;5094225;28;20196;-84
2022/05/07 03:53:29;;;;;;;18.05;13.52;;;13.00;99.90;;;;;;5093995;28;20426;-85
2022/05/07 03:54:22;;;;;;;18.60;12.57;;;12.90;99.90;;;;;;5094445;28;20274;-84
2022/05/07 03:56:49;;;;;;;19.30;12.03;;;13.00;99.90;;;;;;5094381;28;20225;-86
2022/05/07 03:59:16;;;;;;;16.73;12.80;;;13.00;99.90;;;;;;5094221;28;20294;-84
2022/05/07 04:01:43;;;;;;;17.43;12.40;;;12.80;99.90;;;;;;5094043;28;20219;-84
2022/05/07 04:04:09;;;;;;;16.70;12.97;;;12.80;99.90;;;;;;5093932;28;20210;-85
2022/05/07 04:06:37;;;;;;;17.47;13.50;;;12.80;99.90;;;;;;5094290;28;20231;-84
2022/05/07 04:09:11;;;;;;;18.27;13.90;;;12.80;99.90;;;;;;5094299;28;20194;-86
2022/05/07 04:11:45;;;;;;;19.53;14.03;;;12.80;99.90;;;;;;5094321;28;20214;-87
2022/05/07 04:14:13;;;;;;;21.70;14.73;;;12.70;99.90;;;;;;5094348;28;20193;-85
2022/05/07 04:16:40;;;;;;;24.75;19.58;;;12.70;99.90;;;;;;5093065;28;20442;-86
2022/05/07 04:19:07;;;;;;;21.27;16.37;;;12.70;99.90;;;;;;5094314;28;20212;-86
2022/05/07 04:21:34;;;;;;;21.77;16.30;;;12.80;99.90;;;;;;5094500;28;20191;-85
2022/05/07 04:24:00;;;;;;;24.77;16.83;;;12.80;99.90;;;;;;5094337;28;20214;-86
2022/05/07 04:26:27;;;;;;;25.27;16.83;;;12.80;99.90;;;;;;5093815;28;20557;-85
2022/05/07 04:28:55;;;;;;;22.10;16.23;;;12.80;99.90;;;;;;5093923;28;20198;-87
2022/05/07 04:31:22;;;;;;;23.43;17.27;;;12.80;99.90;;;;;;5093859;28;20188;-86
2022/05/07 04:33:49;;;;;;;26.23;17.60;;;12.90;99.90;;;;;;5094081;28;20202;-85
2022/05/07 04:36:15;;;;;;;24.10;16.73;;;12.90;99.90;;;;;;5093974;28;20218;-86
2022/05/07 04:38:42;;;;;;;25.07;17.23;;;13.00;99.90;;;;;;5093863;28;20631;-86
2022/05/07 04:41:09;;;;;;;25.87;17.30;;;13.00;99.90;;;;;;5093395;28;20219;-85
2022/05/07 04:43:36;;;;;;;28.23;17.90;;;12.90;99.90;;;;;;5093958;28;20215;-86
2022/05/07 04:46:04;;;;;;;23.30;17.37;;;12.90;99.90;;;;;;5093829;28;20650;-84
2022/05/07 04:48:31;;;;;;;23.70;17.33;;;13.00;99.90;;;;;;5093575;28;20227;-86
2022/05/07 04:50:57;;;;;;;24.47;17.47;;;13.10;99.90;;;;;;5093529;28;20212;-86
2022/05/07 04:53:24;;;;;;;26.23;18.57;;;13.30;99.90;;;;;;5093782;28;20305;-84
2022/05/07 04:55:51;;;;;;;28.57;18.97;;;13.30;99.90;;;;;;5093628;28;20242;-84
2022/05/07 04:58:18;;;;;;;25.70;18.03;;;13.20;99.90;;;;;;5093506;28;20208;-85
2022/05/07 05:00:44;;;;;;;26.17;18.17;;;13.10;99.90;;;;;;5091042;28;20613;-86
2022/05/07 05:03:13;;;;;;;27.50;18.63;;;13.20;99.90;;;;;;5072049;28;20274;-87
2022/05/07 05:05:41;;;;;;;25.13;19.83;;;13.30;99.90;;;;;;5072710;28;20219;-86
2022/05/07 05:08:08;;;;;;;25.13;19.53;;;13.20;99.90;;;;;;5072062;28;20212;-84
2022/05/07 05:10:35;;;;;;;23.97;18.77;;;13.20;99.90;;;;;;5073060;28;20567;-86
2022/05/07 05:13:01;;;;;;;25.90;19.73;;;13.20;99.90;;;;;;5073361;28;20205;-86
2022/05/07 05:15:28;;;;;;;36.23;20.57;;;13.10;99.90;;;;;;5073888;28;20217;-87
2022/05/07 05:17:55;;;;;;;27.97;19.97;;;13.10;99.90;;;;;;5073479;28;20215;-87
2022/05/07 05:20:23;;;;;;;28.60;19.53;;;13.10;99.90;;;;;;5074535;28;20201;-86
2022/05/07 05:22:51;;;;;;;24.47;19.67;;;13.10;99.90;;;;;;5074959;28;20208;-87
2022/05/07 05:25:19;;;;;;;27.67;19.43;;;13.20;99.90;;;;;;5073862;28;20215;-86
2022/05/07 05:27:46;;;;;;;31.63;19.73;;;13.30;99.90;;;;;;5073325;28;20280;-86
2022/05/07 05:30:14;;;;;;;30.37;20.00;;;13.40;99.90;;;;;;5073328;28;20227;-85
2022/05/07 05:32:40;;;;;;;28.90;20.70;;;13.60;99.90;;;;;;5073211;28;20224;-86
2022/05/07 05:35:08;;;;;;;30.10;20.47;;;13.60;99.90;;;;;;5072994;28;20656;-86
2022/05/07 05:37:36;;;;;;;39.37;21.27;;;13.70;99.90;;;;;;5072643;28;20232;-84
2022/05/07 05:40:03;;;;;;;30.97;20.47;;;13.70;99.90;;;;;;5073107;28;20224;-85
2022/05/07 05:42:30;;;;;;;30.27;20.47;;;13.80;99.90;;;;;;5072574;28;20227;-86
2022/05/07 05:44:56;;;;;;;29.53;19.53;;;13.80;99.90;;;;;;5072291;28;20213;-85
2022/05/07 05:47:23;;;;;;;32.37;20.33;;;13.70;99.90;;;;;;5072843;28;20205;-87
2022/05/07 05:49:50;;;;;;;31.60;20.47;;;13.80;99.90;;;;;;5072827;28;20205;-85
2022/05/07 05:52:17;;;;;;;31.60;24.02;;;13.90;99.90;;;;;;5072444;28;20791;-86
2022/05/07 05:54:46;;;;;;;30.13;22.27;;;14.30;99.90;;;;;;5072653;28;20202;-85
2022/05/07 05:57:12;;;;;;;27.47;19.83;;;14.20;99.90;;;;;;5072699;28;20225;-86
2022/05/07 05:59:39;;;;;;;29.80;20.17;;;14.10;99.90;;;;;;5073506;28;20205;-86
2022/05/07 06:02:06;;;;;;;26.57;19.33;;;14.00;99.90;;;;;;5073052;28;20229;-85
2022/05/07 06:04:33;;;;;;;29.17;20.93;;;13.80;99.90;;;;;;5073101;28;20223;-87
2022/05/07 06:07:00;;;;;;;30.40;20.57;;;13.60;99.90;;;;;;5073348;28;20190;-86
2022/05/07 06:09:28;;;;;;;29.53;21.37;;;13.70;99.90;;;;;;5073321;28;20209;-86
2022/05/07 06:11:57;;;;;;;28.53;20.30;;;13.80;99.90;;;;;;5074958;28;20206;-86
2022/05/07 06:14:23;;;;;;;27.67;20.00;;;13.90;99.90;;;;;;5074357;28;20263;-86
2022/05/07 06:16:50;;;;;;;28.60;20.03;;;14.10;99.90;;;;;;5076579;28;20237;-86
2022/05/07 06:19:17;;;;;;;34.87;20.60;;;14.30;99.90;;;;;;5076360;28;20194;-86
2022/05/07 06:21:44;;;;;;;28.03;20.13;;;14.50;99.90;;;;;;5076073;28;20201;-85
2022/05/07 06:29:40;;;;;;;27.17;20.03;;;14.70;99.90;;;;;;5075854;28;20209;-86
2022/05/07 06:32:08;;;;;;;29.33;19.97;;;14.50;99.90;;;;;;5075968;28;20555;-84
2022/05/07 06:34:36;;;;;;;28.50;21.37;;;14.50;99.90;;;;;;5078579;28;20209;-85
2022/05/07 06:37:02;;;;;;;29.10;20.70;;;14.60;99.90;;;;;;5085633;28;20225;-84
2022/05/07 06:39:29;;;;;;;33.58;23.92;;;14.60;99.90;;;;;;5091386;28;20407;-84
2022/05/07 06:41:57;;;;;;;31.03;21.67;;;14.70;99.90;;;;;;5095666;28;20205;-84
2022/05/07 06:44:30;;;;;;;29.17;21.40;;;15.10;99.90;;;;;;5096000;28;20212;-84
2022/05/07 06:46:58;;;;;;;34.27;21.50;;;15.10;99.90;;;;;;5096309;28;20193;-84
2022/05/07 06:49:28;;;;;;;32.60;21.00;;;15.20;99.90;;;;;;5096196;28;20197;-84
2022/05/07 06:51:54;;;;;;;28.47;21.03;;;15.10;99.90;;;;;;5095563;28;20738;-81
2022/05/07 06:54:23;;;;;;;30.40;20.80;;;15.10;99.90;;;;;;5095962;28;20216;-84
2022/05/07 06:56:52;;;;;;;30.10;21.03;;;15.40;99.90;;;;;;5096121;28;20336;-84
2022/05/07 06:59:21;;;;;;;31.80;20.40;;;15.40;99.90;;;;;;5095673;28;20194;-84
2022/05/07 07:01:48;;;;;;;30.23;20.83;;;15.40;99.90;;;;;;5095588;28;20250;-85
2022/05/07 07:04:16;;;;;;;33.20;24.77;;;15.40;99.90;;;;;;5094853;28;20414;-85
2022/05/07 07:06:43;;;;;;;28.30;21.40;;;15.60;99.90;;;;;;5094897;28;20186;-83
2022/05/07 07:09:12;;;;;;;27.83;20.07;;;15.70;99.90;;;;;;5095496;28;20193;-84
2022/05/07 07:11:40;;;;;;;30.10;19.03;;;15.70;99.90;;;;;;5095730;28;20198;-84
2022/05/07 07:14:07;;;;;;;25.77;19.60;;;15.70;99.90;;;;;;5094950;28;20205;-84
2022/05/07 07:16:35;;;;;;;44.83;22.63;;;16.00;99.90;;;;;;5095395;28;20227;-82
2022/05/07 07:19:02;;;;;;;29.53;20.07;;;16.10;99.90;;;;;;5095267;28;20576;-81
2022/05/07 07:21:31;;;;;;;30.17;20.97;;;16.20;99.90;;;;;;5094697;28;20576;-83
2022/05/07 07:23:59;;;;;;;26.40;19.03;;;16.40;99.90;;;;;;5095372;28;20192;-86
2022/05/07 07:26:27;;;;;;;26.50;18.17;;;16.50;99.90;;;;;;5094477;28;20187;-86
2022/05/07 07:28:56;;;;;;;31.40;21.75;;;16.40;99.90;;;;;;5094551;28;20434;-86
2022/05/07 07:31:26;;;;;;;25.50;19.07;;;16.30;99.90;;;;;;5095399;28;20199;-85
2022/05/07 07:33:54;;;;;;;26.90;18.00;;;16.30;99.90;;;;;;5095120;28;20223;-86
2022/05/07 07:36:22;;;;;;;27.93;19.47;;;16.50;99.90;;;;;;5094293;28;20204;-85
2022/05/07 07:38:49;;;;;;;32.67;19.13;;;16.60;99.90;;;;;;5080126;28;20197;-83
2022/05/07 07:41:17;;;;;;;25.40;17.27;;;16.90;99.90;;;;;;5082335;28;20194;-84
2022/05/07 07:43:49;;;;;;;25.33;17.73;;;17.00;99.90;;;;;;5084420;28;20204;-86
2022/05/07 07:49:06;;;;;;;27.80;17.97;;;16.90;99.90;;;;;;5074238;28;20569;-90
2022/05/07 07:51:32;;;;;;;25.40;18.40;;;17.10;99.90;;;;;;5074258;28;20644;-83
2022/05/07 07:53:59;;;;;;;27.27;21.35;;;17.40;99.90;;;;;;5073279;28;20424;-82
2022/05/07 07:56:26;;;;;;;27.43;19.13;;;17.60;99.90;;;;;;5073784;28;20187;-83
2022/05/07 07:58:53;;;;;;;28.27;19.10;;;17.60;99.90;;;;;;5074188;28;20183;-82
2022/05/07 08:01:20;;;;;;;27.97;18.63;;;17.50;99.90;;;;;;5073564;28;20226;-83
2022/05/07 08:03:46;;;;;;;22.53;18.33;;;17.60;99.90;;;;;;5073848;28;20205;-86
2022/05/07 08:06:15;;;;;;;28.17;18.53;;;17.80;99.90;;;;;;5073569;28;20202;-84
2022/05/07 08:11:44;;;;;;;23.17;17.23;;;17.90;99.90;;;;;;5089036;28;20278;-83
2022/05/07 08:14:13;;;;;;;25.10;17.83;;;17.90;99.90;;;;;;5088702;28;20251;-83
2022/05/07 08:16:40;;;;;;;22.87;17.13;;;17.50;99.90;;;;;;5094075;28;20255;-81
2022/05/07 08:19:07;;;;;;;24.33;17.70;;;17.60;99.90;;;;;;5094096;28;20194;-84
2022/05/07 08:21:39;;;;;;;22.43;17.43;;;17.80;99.90;;;;;;5077688;28;20205;-81
2022/05/07 08:24:07;;;;;;;25.10;16.87;;;18.10;99.90;;;;;;5074431;28;20198;-82
2022/05/07 08:26:34;;;;;;;23.57;17.03;;;18.10;99.90;;;;;;5084929;28;20197;-86
2022/05/07 08:29:00;;;;;;;24.73;17.63;;;17.70;99.90;;;;;;5090872;28;20193;-83
2022/05/07 08:31:28;;;;;;;26.57;18.07;;;17.60;99.90;;;;;;5094091;28;20214;-85
2022/05/07 08:33:55;;;;;;;25.50;17.50;;;17.80;99.90;;;;;;5075540;28;20217;-84
2022/05/07 08:36:23;;;;;;;22.27;16.70;;;17.90;99.90;;;;;;5071447;28;20291;-82
2022/05/07 08:38:51;;;;;;;22.70;16.67;;;18.10;99.90;;;;;;5071357;28;20280;-82
2022/05/07 08:41:19;;;;;;;26.05;18.10;;;18.30;99.90;;;;;;5070975;28;20427;-82
2022/05/07 08:43:46;;;;;;;23.20;17.50;;;18.30;99.90;;;;;;5071280;28;20210;-82
2022/05/07 08:46:16;;;;;;;23.70;16.80;;;17.90;99.90;;;;;;5082041;28;20191;-81
2022/05/07 08:48:46;;;;;;;24.53;17.13;;;17.50;99.90;;;;;;5081128;28;20194;-82
2022/05/07 08:51:15;;;;;;;25.33;16.73;;;17.60;99.90;;;;;;5076260;28;20199;-83
2022/05/07 08:53:43;;;;;;;24.40;16.70;;;17.80;99.90;;;;;;5073175;28;20211;-82
2022/05/07 08:56:12;;;;;;;20.90;16.67;;;18.00;99.90;;;;;;5080981;28;20284;-81
2022/05/07 08:58:39;;;;;;;22.40;17.20;;;18.10;99.90;;;;;;5073183;28;20226;-84
2022/05/07 09:01:06;;;;;;;26.73;16.97;;;18.20;99.90;;;;;;5073297;28;20220;-84
2022/05/07 09:03:40;;;;;;;21.73;16.33;;;18.00;99.90;;;;;;5075524;28;20665;-84
2022/05/07 09:06:21;;;;;;;28.30;17.23;;;17.80;99.90;;;;;;5083851;28;20201;-84
2022/05/07 09:08:54;;;;;;;22.33;15.90;;;17.70;99.90;;;;;;5093052;28;20200;-85
2022/05/07 09:11:23;;;;;;;23.73;16.97;;;17.60;99.90;;;;;;5093593;28;20212;-83
2022/05/07 09:14:01;;;;;;;23.00;17.00;;;17.50;99.90;;;;;;5093454;28;20211;-82
2022/05/07 09:16:39;;;;;;;21.07;16.20;;;17.40;99.90;;;;;;5092937;28;20288;-82
2022/05/07 09:19:06;;;;;;;25.07;17.47;;;17.50;99.90;;;;;;5093061;28;20535;-81
2022/05/07 09:21:34;;;;;;;27.20;17.77;;;17.60;99.90;;;;;;5091641;28;20201;-82
2022/05/07 09:24:06;;;;;;;25.40;17.10;;;17.60;99.90;;;;;;5093304;28;20292;-81
2022/05/07 09:26:39;;;;;;;25.20;18.00;;;17.80;99.90;;;;;;5093000;28;20197;-83
2022/05/07 09:29:09;;;;;;;25.57;17.20;;;17.70;99.90;;;;;;5093741;28;20637;-84
2022/05/07 09:31:37;;;;;;;27.37;18.20;;;18.10;99.90;;;;;;5093333;28;20195;-85
2022/05/07 09:36:56;;;;;;;25.30;17.93;;;18.40;99.90;;;;;;5093265;28;20200;-85
2022/05/07 09:39:23;;;;;;;27.40;18.57;;;18.20;99.90;;;;;;5090719;28;20681;-84
2022/05/07 09:41:56;;;;;;;20.33;16.03;;;18.50;99.90;;;;;;5074921;28;20223;-84
2022/05/07 09:44:24;;;;;;;20.93;15.60;;;18.80;99.90;;;;;;5073187;28;20198;-86
2022/05/07 09:46:51;;;;;;;22.80;16.73;;;19.00;99.90;;;;;;5072993;28;20187;-86
2022/05/07 09:49:19;;;;;;;20.80;17.97;;;19.10;99.90;;;;;;5075425;28;20209;-84
2022/05/07 09:51:48;;;;;;;21.30;15.60;;;19.30;99.90;;;;;;5075566;28;20199;-84
2022/05/07 09:59:48;;;;;;;26.43;16.40;;;19.50;99.90;;;;;;5095565;28;20203;-85
2022/05/07 10:02:25;;;;;;;18.90;14.73;;;19.30;99.90;;;;;;5096067;28;20250;-85
2022/05/07 10:05:20;;;;;;;17.73;14.40;;;19.10;99.90;;;;;;5096495;28;20204;-85
2022/05/07 10:08:16;;;;;;;20.10;14.73;;;19.30;99.90;;;;;;5091404;28;20626;-85
2022/05/07 10:10:48;;;;;;;21.17;15.73;;;19.40;99.90;;;;;;5096622;28;20210;-85
2022/05/07 10:13:19;;;;;;;18.33;14.63;;;19.10;99.90;;;;;;5096235;28;20204;-84
2022/05/07 10:15:46;;;;;;;18.83;14.43;;;19.10;99.90;;;;;;5096115;28;20196;-85
2022/05/07 10:18:17;;;;;;;20.60;15.07;;;19.00;99.90;;;;;;5096258;28;20219;-84
2022/05/07 10:20:46;;;;;;;19.60;15.50;;;19.10;99.90;;;;;;5095097;28;20925;-84
2022/05/07 10:23:14;;;;;;;16.77;13.70;;;19.50;99.90;;;;;;5096406;28;20556;-84
2022/05/07 10:25:44;;;;;;;18.23;13.00;;;19.40;99.90;;;;;;5095009;28;20197;-84
2022/05/07 10:28:12;;;;;;;17.87;13.53;;;19.50;99.90;;;;;;5096155;28;20208;-85
2022/05/07 10:30:51;;;;;;;17.50;13.67;;;19.50;99.90;;;;;;5094571;28;20204;-85
2022/05/07 10:33:18;;;;;;;19.20;13.77;;;19.50;99.90;;;;;;5095647;28;20188;-84
2022/05/07 10:35:49;;;;;;;17.57;14.00;;;19.50;99.90;;;;;;5096380;28;20193;-88
2022/05/07 10:38:26;;;;;;;19.73;14.13;;;19.50;99.90;;;;;;5090244;27;20277;-87
2022/05/07 10:40:54;;;;;;;20.50;14.57;;;19.40;99.90;;;;;;5096627;28;20208;-86
2022/05/07 10:43:29;;;;;;;22.40;14.50;;;19.60;99.90;;;;;;5096367;28;20216;-85
2022/05/07 10:46:00;;;;;;;14.13;12.67;;;19.80;99.90;;;;;;5091573;28;20201;-87
2022/05/07 10:48:27;;;;;;;19.10;14.03;;;19.60;99.90;;;;;;5084666;28;20275;-89
2022/05/07 10:50:56;;;;;;;18.30;14.17;;;19.40;99.90;;;;;;5083569;28;20214;-88
2022/05/07 10:53:23;;;;;;;16.30;12.87;;;19.20;99.90;;;;;;5086186;27;20202;-86
2022/05/07 10:55:53;;;;;;;15.77;11.93;;;19.40;99.90;;;;;;5080969;28;20200;-88
2022/05/07 10:58:28;;;;;;;18.90;13.43;;;19.60;99.90;;;;;;5075261;28;20240;-88
2022/05/07 11:00:59;;;;;;;14.67;12.77;;;19.80;99.90;;;;;;5074309;28;20224;-88
2022/05/07 11:03:27;;;;;;;19.03;13.83;;;20.00;99.90;;;;;;5075807;28;20571;-86
2022/05/07 11:06:00;;;;;;;18.40;16.47;;;20.10;99.90;;;;;;5075669;28;20199;-86
2022/05/07 11:08:29;;;;;;;24.80;22.17;;;20.30;99.90;;;;;;5074617;28;20962;-86
2022/05/07 11:11:05;;;;;;;24.57;18.30;;;20.50;99.90;;;;;;5077958;28;20202;-87
2022/05/07 11:13:32;;;;;;;22.50;19.03;;;20.50;99.90;;;;;;5078405;28;20725;-87
2022/05/07 11:16:07;;;;;;;17.80;14.50;;;20.40;99.90;;;;;;5078624;28;20216;-86
2022/05/07 11:18:34;;;;;;;17.67;13.40;;;20.20;99.90;;;;;;5075261;28;20236;-87
2022/05/07 11:21:05;;;;;;;16.97;13.90;;;20.10;99.90;;;;;;5076849;28;20205;-85
2022/05/07 11:23:37;;;;;;;17.03;12.80;;;20.30;99.90;;;;;;5077238;28;20210;-86
2022/05/07 11:26:15;;;;;;;15.33;13.47;;;20.40;99.90;;;;;;5081058;28;20688;-87
2022/05/07 11:28:43;;;;;;;16.13;13.97;;;20.70;99.90;;;;;;5081014;28;20205;-86
2022/05/07 11:31:12;;;;;;;16.70;14.63;;;20.90;99.90;;;;;;5076321;28;20201;-87
2022/05/07 11:33:39;;;;;;;13.20;11.80;;;20.60;99.90;;;;;;5075316;28;20205;-87
2022/05/07 11:36:08;;;;;;;15.13;10.37;;;20.60;99.90;;;;;;5075150;28;20211;-88
2022/05/07 11:38:35;;;;;;;12.33;11.00;;;20.10;99.90;;;;;;5073647;28;20322;-87
2022/05/07 11:41:14;;;;;;;11.43;10.20;;;20.30;99.90;;;;;;5087654;28;20527;-87
2022/05/07 11:46:27;;;;;;;15.63;14.13;;;20.50;99.90;;;;;;5095078;28;20607;-86
2022/05/07 11:49:06;;;;;;;20.50;16.23;;;20.60;99.90;;;;;;5093929;28;20205;-86
2022/05/07 11:51:35;;;;;;;20.37;18.10;;;20.60;99.90;;;;;;5094979;28;20246;-87
2022/05/07 11:54:09;;;;;;;20.10;18.40;;;20.50;99.90;;;;;;5087293;28;20204;-87
2022/05/07 11:56:47;;;;;;;23.20;21.05;;;20.40;99.90;;;;;;5073778;28;20992;-88
2022/05/07 11:59:15;;;;;;;21.80;19.90;;;20.40;99.90;;;;;;5074236;28;20225;-86
2022/05/07 12:01:49;;;;;;;24.67;22.47;;;20.30;99.90;;;;;;5074346;28;20218;-87
2022/05/07 12:04:16;;;;;;;17.53;15.83;;;20.30;99.90;;;;;;5079886;28;20195;-88
2022/05/07 12:06:42;;;;;;;14.73;13.30;;;20.00;99.90;;;;;;5076823;28;20205;-88
2022/05/07 12:09:15;;;;;;;15.73;12.43;;;19.70;99.90;;;;;;5074790;28;20212;-88
2022/05/07 12:11:45;;;;;;;18.93;12.00;;;19.40;99.90;;;;;;5073453;28;20225;-88
2022/05/07 12:14:13;;;;;;;14.07;12.77;;;19.30;99.90;;;;;;5075011;28;20685;-88
2022/05/07 12:19:34;;;;;;;12.93;11.67;;;19.40;99.90;;;;;;5083057;28;20226;-91
2022/05/07 12:30:20;;;;;;;16.37;13.40;;;19.60;99.90;;;;;;5096019;28;20200;-92
2022/05/07 12:32:54;;;;;;;15.13;13.80;;;19.60;99.90;;;;;;5095862;28;20230;-91
2022/05/07 12:35:22;;;;;;;16.60;15.03;;;19.70;99.90;;;;;;5098555;28;20204;-91
2022/05/07 12:37:52;;;;;;;15.63;14.13;;;19.60;99.90;;;;;;5100508;28;20189;-89
2022/05/07 12:40:19;;;;;;;15.87;14.43;;;19.70;99.90;;;;;;5093587;28;20200;-84
2022/05/07 12:42:47;;;;;;;13.93;12.73;;;19.70;99.90;;;;;;5079251;28;20206;-86
2022/05/07 12:45:15;;;;;;;13.67;12.40;;;19.60;99.90;;;;;;5071950;28;20713;-85
2022/05/07 12:47:42;;;;;;;13.77;12.60;;;19.60;99.90;;;;;;5073316;28;20201;-86
2022/05/07 12:50:12;;;;;;;13.57;12.27;;;19.60;99.90;;;;;;5074171;28;20205;-91
2022/05/07 12:52:40;;;;;;;13.20;11.83;;;19.50;99.90;;;;;;5073610;28;20198;-86
2022/05/07 12:55:08;;;;;;;13.53;11.03;;;19.50;99.90;;;;;;5073678;28;20211;-86
2022/05/07 12:57:44;;;;;;;11.70;10.70;;;19.60;99.90;;;;;;5091269;28;20208;-91
2022/05/07 13:00:12;;;;;;;11.53;10.47;;;19.70;99.90;;;;;;5079201;28;20240;-87
2022/05/07 13:02:44;;;;;;;12.00;10.93;;;19.80;99.90;;;;;;5073843;28;20206;-86
2022/05/07 13:05:13;;;;;;;13.47;11.03;;;19.80;99.90;;;;;;5089501;28;20204;-85
2022/05/07 13:07:43;;;;;;;11.80;10.70;;;19.80;99.90;;;;;;5096412;28;20565;-84
2022/05/07 13:10:10;;;;;;;13.23;11.95;;;19.70;99.90;;;;;;5094087;28;20426;-87
2022/05/07 13:12:39;;;;;;;13.43;11.63;;;19.70;99.90;;;;;;5093645;28;20683;-85
2022/05/07 13:15:07;;;;;;;11.53;10.53;;;19.50;99.90;;;;;;5094869;28;20208;-86